Time;durP1;ratioP1;P1;durP2;ratioP2;P2;SDS_P1;SDS_P2;PMS_P1;PMS_P2;Temp;Humidity;BMP_temperature;BMP_pressure;BME280_temperature;BME280_humidity;BME280_pressure;Samples;Min_cycle;Max_cycle;Signal;HPM_P1;HPM_P2
2022/02/02 00:01:20;;;;;;;2.33;1.65;;;;;;;18.36;44.50;100264.73;;;;-55
2022/02/02 00:04:20;;;;;;;1.42;1.32;;;;;;;18.32;44.59;100253.19;;;;-55
2022/02/02 00:07:29;;;;;;;1.49;1.39;;;;;;;18.30;44.61;100248.05;;;;-55
2022/02/02 00:10:37;;;;;;;1.87;1.77;;;;;;;18.29;44.60;100256.66;;;;-53
2022/02/02 00:13:30;;;;;;;1.73;1.63;;;;;;;18.28;44.59;100261.34;;;;-54
2022/02/02 00:16:24;;;;;;;2.07;1.93;;;;;;;18.25;44.63;100249.81;;;;-53
2022/02/02 00:19:25;;;;;;;1.73;1.63;;;;;;;18.23;44.65;100238.11;;;;-54
2022/02/02 00:22:19;;;;;;;1.89;1.79;;;;;;;18.22;44.65;100251.42;;;;-53
2022/02/02 00:25:20;;;;;;;1.84;1.74;;;;;;;18.21;44.66;100261.30;;;;-54
2022/02/02 00:28:18;;;;;;;1.77;1.67;;;;;;;18.20;44.65;100255.76;;;;-57
2022/02/02 00:31:21;;;;;;;2.02;1.92;;;;;;;18.18;44.67;100248.30;;;;-58
2022/02/02 00:34:21;;;;;;;2.18;2.07;;;;;;;18.15;44.71;100257.67;;;;-56
2022/02/02 00:37:17;;;;;;;2.07;1.93;;;;;;;18.15;44.75;100272.36;;;;-54
2022/02/02 00:40:16;;;;;;;2.67;2.47;;;;;;;18.12;44.71;100265.36;;;;-57
2022/02/02 00:43:16;;;;;;;1.88;1.78;;;;;;;18.11;44.78;100262.42;;;;-56
2022/02/02 00:46:16;;;;;;;1.81;1.71;;;;;;;18.10;44.74;100256.09;;;;-55
2022/02/02 00:49:16;;;;;;;2.28;2.15;;;;;;;18.08;44.75;100238.57;;;;-58
2022/02/02 00:52:16;;;;;;;2.05;1.95;;;;;;;18.06;44.82;100240.17;;;;-57
2022/02/02 00:55:16;;;;;;;1.85;1.75;;;;;;;18.05;44.81;100249.88;;;;-58
2022/02/02 00:58:16;;;;;;;1.87;1.77;;;;;;;18.04;44.83;100263.51;;;;-57
2022/02/02 01:01:16;;;;;;;2.81;2.61;;;;;;;18.02;44.79;100268.19;;;;-56
2022/02/02 01:04:16;;;;;;;2.95;2.75;;;;;;;18.01;44.84;100263.78;;;;-58
2022/02/02 01:07:22;;;;;;;3.31;3.05;;;;;;;17.98;44.81;100256.39;;;;-57
2022/02/02 01:10:21;;;;;;;3.32;3.07;;;;;;;17.97;44.87;100251.86;;;;-57
2022/02/02 01:13:50;;;;;;;2.77;2.57;;;;;;;17.95;44.90;100240.24;;;;-58
2022/02/02 01:19:27;;;;;;;2.55;2.39;;;;;;;17.94;44.90;100243.63;;;;-55
2022/02/02 01:22:19;;;;;;;1.97;1.87;;;;;;;17.92;44.90;100253.82;;;;-57
2022/02/02 01:28:16;;;;;;;3.47;3.24;;;;;;;17.90;44.93;100232.41;;;;-57
2022/02/02 01:31:16;;;;;;;3.25;3.01;;;;;;;17.89;44.95;100236.14;;;;-57
2022/02/02 01:34:16;;;;;;;3.16;2.96;;;;;;;17.87;45.00;100249.16;;;;-55
2022/02/02 01:37:17;;;;;;;3.23;3.03;;;;;;;17.86;45.04;100250.52;;;;-57
2022/02/02 01:40:22;;;;;;;2.79;2.59;;;;;;;17.85;44.98;100251.33;;;;-58
2022/02/02 01:43:20;;;;;;;2.78;2.58;;;;;;;17.84;44.98;100255.84;;;;-57
2022/02/02 01:46:19;;;;;;;2.78;2.58;;;;;;;17.83;45.00;100236.64;;;;-55
2022/02/02 01:50:15;;;;;;;2.72;2.52;;;;;;;17.82;45.01;100255.16;;;;-58
2022/02/02 01:53:24;;;;;;;2.26;2.06;;;;;;;17.80;45.07;100264.77;;;;-56
2022/02/02 01:56:16;;;;;;;2.28;2.15;;;;;;;17.79;45.04;100269.56;;;;-58
2022/02/02 01:59:26;;;;;;;2.18;2.03;;;;;;;17.78;45.08;100278.53;;;;-58
2022/02/02 02:02:16;;;;;;;1.93;1.74;;;;;;;17.77;45.04;100282.27;;;;-54
2022/02/02 02:05:16;;;;;;;2.66;2.46;;;;;;;17.75;45.13;100285.32;;;;-58
2022/02/02 02:08:16;;;;;;;2.53;2.33;;;;;;;17.74;45.08;100282.13;;;;-57
2022/02/02 02:11:19;;;;;;;2.44;2.24;;;;;;;17.73;45.11;100283.03;;;;-57
2022/02/02 02:14:39;;;;;;;2.77;2.57;;;;;;;17.72;45.12;100285.52;;;;-57
2022/02/02 02:17:16;;;;;;;2.70;2.50;;;;;;;17.72;45.10;100278.95;;;;-54
2022/02/02 02:20:16;;;;;;;1.90;1.75;;;;;;;17.69;45.14;100281.93;;;;-55
2022/02/02 02:23:17;;;;;;;2.76;2.26;;;;;;;17.68;45.14;100278.61;;;;-56
2022/02/02 02:26:22;;;;;;;2.35;2.15;;;;;;;17.68;45.14;100307.30;;;;-58
2022/02/02 02:29:32;;;;;;;2.69;2.49;;;;;;;17.66;45.16;100303.88;;;;-57
2022/02/02 02:32:28;;;;;;;2.57;2.37;;;;;;;17.65;45.21;100296.55;;;;-58
2022/02/02 02:35:35;;;;;;;2.90;2.70;;;;;;;17.64;45.20;100286.34;;;;-57
2022/02/02 02:56:17;;;;;;;2.81;2.61;;;;;;;17.57;45.25;100254.33;;;;-56
2022/02/02 02:59:30;;;;;;;1.96;1.79;;;;;;;17.56;45.25;100262.11;;;;-56
2022/02/02 03:02:59;;;;;;;1.84;1.74;;;;;;;17.55;45.23;100252.11;;;;-55
2022/02/02 03:32:42;;;;;;;2.28;2.08;;;;;;;17.47;45.33;100256.10;;;;-57
2022/02/02 03:35:28;;;;;;;1.85;1.75;;;;;;;17.46;45.23;100260.20;;;;-56
2022/02/02 03:53:42;;;;;;;1.90;1.77;;;;;;;17.40;45.35;100302.91;;;;-56
2022/02/02 03:56:30;;;;;;;2.42;2.21;;;;;;;17.40;45.31;100315.05;;;;-56
2022/02/02 03:59:33;;;;;;;2.05;1.77;;;;;;;17.39;45.29;100294.78;;;;-58
2022/02/02 04:02:40;;;;;;;2.59;2.39;;;;;;;17.37;45.30;100311.55;;;;-57
2022/02/02 04:05:52;;;;;;;2.20;2.03;;;;;;;17.37;45.31;100322.48;;;;-55
2022/02/02 04:08:29;;;;;;;1.73;1.63;;;;;;;17.36;45.33;100306.83;;;;-54
2022/02/02 04:11:25;;;;;;;2.31;2.11;;;;;;;17.36;45.34;100318.73;;;;-54
2022/02/02 04:15:22;;;;;;;2.06;1.82;;;;;;;17.34;45.33;100303.23;;;;-54
2022/02/02 04:17:46;;;;;;;1.81;1.71;;;;;;;17.33;45.37;100313.36;;;;-55
2022/02/02 04:38:54;;;;;;;2.35;2.15;;;;;;;17.28;45.40;100299.43;;;;-54
2022/02/02 04:52:39;;;;;;;3.13;2.83;;;;;;;17.24;45.40;100324.75;;;;-57
2022/02/02 04:55:25;;;;;;;3.30;3.08;;;;;;;17.24;45.45;100340.52;;;;-57
2022/02/02 04:58:25;;;;;;;3.18;2.97;;;;;;;17.23;45.42;100330.72;;;;-56
2022/02/02 05:02:09;;;;;;;3.73;3.43;;;;;;;17.23;45.44;100332.82;;;;-56
2022/02/02 05:08:23;;;;;;;4.79;4.39;;;;;;;17.21;45.43;100366.89;;;;-56
2022/02/02 05:11:32;;;;;;;3.53;3.23;;;;;;;17.21;45.48;100358.95;;;;-55
2022/02/02 05:15:17;;;;;;;4.24;3.94;;;;;;;17.20;45.47;100367.02;;;;-56
2022/02/02 05:17:29;;;;;;;4.43;4.13;;;;;;;17.19;45.46;100370.42;;;;-56
2022/02/02 05:20:48;;;;;;;4.43;4.03;;;;;;;17.19;45.45;100374.22;;;;-56
2022/02/02 05:27:47;;;;;;;4.91;4.51;;;;;;;17.16;45.49;100388.93;;;;-55
2022/02/02 05:43:17;;;;;;;8.77;2.95;;;;;;;16.83;45.93;100380.81;;;;-56
2022/02/02 05:49:33;;;;;;;9.89;5.33;;;;;;;16.54;47.75;100394.35;;;;-56
2022/02/02 05:52:16;;;;;;;10.49;4.12;;;;;;;16.40;48.27;100398.73;;;;-56
2022/02/02 05:55:16;;;;;;;11.89;5.01;;;;;;;16.33;48.38;100412.13;;;;-56
2022/02/02 05:58:16;;;;;;;13.41;7.70;;;;;;;16.22;48.62;100397.67;;;;-56
2022/02/02 06:01:16;;;;;;;12.96;5.21;;;;;;;16.13;48.65;100399.13;;;;-55
2022/02/02 06:04:16;;;;;;;8.98;4.60;;;;;;;16.04;48.92;100408.67;;;;-55
2022/02/02 06:07:16;;;;;;;12.17;4.17;;;;;;;16.00;49.04;100413.59;;;;-55
2022/02/02 06:10:17;;;;;;;11.69;4.65;;;;;;;15.97;48.88;100414.33;;;;-55
2022/02/02 06:13:16;;;;;;;9.13;4.42;;;;;;;15.91;48.97;100413.00;;;;-56
2022/02/02 06:16:16;;;;;;;11.50;4.91;;;;;;;15.83;49.10;100395.30;;;;-54
2022/02/02 06:19:16;;;;;;;13.10;7.85;;;;;;;15.75;49.08;100405.42;;;;-55
2022/02/02 06:22:16;;;;;;;8.87;5.91;;;;;;;15.82;48.95;100415.33;;;;-51
2022/02/02 06:25:15;;;;;;;11.07;6.34;;;;;;;15.92;48.66;100419.50;;;;-52
2022/02/02 06:28:16;;;;;;;10.09;7.31;;;;;;;16.04;48.58;100424.56;;;;-53
2022/02/02 06:31:16;;;;;;;11.77;7.62;;;;;;;16.14;48.50;100418.38;;;;-53
2022/02/02 06:34:16;;;;;;;9.89;6.61;;;;;;;16.26;48.65;100432.52;;;;-52
2022/02/02 06:37:16;;;;;;;9.37;7.13;;;;;;;16.36;48.52;100437.89;;;;-54
2022/02/02 06:40:16;;;;;;;10.29;6.70;;;;;;;16.46;48.43;100444.55;;;;-51
2022/02/02 06:43:16;;;;;;;7.66;3.63;;;;;;;16.55;48.01;100449.31;;;;-54
2022/02/02 06:46:16;;;;;;;8.44;5.94;;;;;;;16.63;47.87;100456.02;;;;-55
2022/02/02 06:49:16;;;;;;;9.95;6.29;;;;;;;16.71;47.82;100458.51;;;;-55
2022/02/02 06:52:19;;;;;;;8.69;6.90;;;;;;;16.76;47.79;100459.88;;;;-54
2022/02/02 06:55:24;;;;;;;8.01;6.68;;;;;;;16.82;47.56;100472.72;;;;-55
2022/02/02 06:58:22;;;;;;;9.57;6.91;;;;;;;16.87;47.52;100477.17;;;;-55
2022/02/02 07:01:30;;;;;;;8.72;6.74;;;;;;;16.93;47.48;100482.61;;;;-55
2022/02/02 07:04:24;;;;;;;8.47;7.07;;;;;;;16.99;47.58;100488.71;;;;-55
2022/02/02 07:07:24;;;;;;;9.43;7.98;;;;;;;17.04;47.55;100486.88;;;;-53
2022/02/02 07:10:22;;;;;;;8.09;5.75;;;;;;;17.08;47.36;100480.52;;;;-54
2022/02/02 07:13:26;;;;;;;6.79;5.34;;;;;;;17.10;47.36;100482.44;;;;-55
2022/02/02 07:16:27;;;;;;;7.62;6.49;;;;;;;17.14;47.26;100483.64;;;;-55
2022/02/02 07:19:27;;;;;;;6.72;6.02;;;;;;;17.17;47.22;100483.02;;;;-54
2022/02/02 07:22:27;;;;;;;7.23;5.49;;;;;;;17.19;47.14;100490.02;;;;-55
2022/02/02 07:25:41;;;;;;;7.47;6.73;;;;;;;17.23;47.21;100504.59;;;;-56
2022/02/02 07:28:21;;;;;;;6.31;5.56;;;;;;;17.24;47.12;100505.72;;;;-56
2022/02/02 07:31:32;;;;;;;6.57;5.75;;;;;;;17.25;46.97;100500.09;;;;-55
2022/02/02 07:34:16;;;;;;;7.13;6.42;;;;;;;17.26;47.05;100499.39;;;;-56
2022/02/02 07:37:25;;;;;;;6.68;5.91;;;;;;;17.27;46.87;100501.50;;;;-55
2022/02/02 07:40:17;;;;;;;8.38;6.02;;;;;;;17.28;46.90;100502.14;;;;-55
2022/02/02 07:43:16;;;;;;;6.29;5.04;;;;;;;17.30;46.79;100497.56;;;;-57
2022/02/02 07:46:17;;;;;;;6.08;5.23;;;;;;;17.30;46.75;100498.61;;;;-56
2022/02/02 07:49:16;;;;;;;6.25;5.63;;;;;;;17.31;46.73;100513.71;;;;-55
2022/02/02 07:52:16;;;;;;;6.23;5.23;;;;;;;17.31;46.73;100502.21;;;;-55
2022/02/02 07:55:16;;;;;;;8.27;6.05;;;;;;;17.32;46.67;100499.94;;;;-55
2022/02/02 07:58:19;;;;;;;6.53;5.91;;;;;;;17.32;46.67;100517.03;;;;-54
2022/02/02 08:01:17;;;;;;;5.43;4.59;;;;;;;17.32;46.64;100516.70;;;;-55
2022/02/02 08:04:17;;;;;;;6.60;5.57;;;;;;;17.33;46.58;100519.87;;;;-54
2022/02/02 08:07:23;;;;;;;6.35;5.67;;;;;;;17.32;46.57;100521.65;;;;-54
2022/02/02 08:10:19;;;;;;;5.43;4.37;;;;;;;17.32;46.52;100528.37;;;;-54
2022/02/02 08:13:19;;;;;;;7.39;6.67;;;;;;;17.32;46.47;100527.48;;;;-55
2022/02/02 08:16:17;;;;;;;6.29;5.65;;;;;;;17.31;46.42;100523.19;;;;-54
2022/02/02 08:19:17;;;;;;;7.19;6.04;;;;;;;17.30;46.47;100518.95;;;;-54
2022/02/02 08:22:16;;;;;;;4.88;4.20;;;;;;;17.31;46.46;100520.59;;;;-54
2022/02/02 08:25:24;;;;;;;5.71;5.17;;;;;;;17.30;46.43;100525.50;;;;-54
2022/02/02 08:28:16;;;;;;;5.84;5.26;;;;;;;17.30;46.45;100536.92;;;;-55
2022/02/02 08:31:16;;;;;;;5.52;5.02;;;;;;;17.30;46.40;100542.27;;;;-54
2022/02/02 08:34:16;;;;;;;5.98;5.41;;;;;;;17.29;46.39;100547.05;;;;-55
2022/02/02 08:37:16;;;;;;;5.65;5.03;;;;;;;17.28;46.33;100551.55;;;;-54
2022/02/02 08:40:26;;;;;;;7.40;6.66;;;;;;;17.28;46.35;100553.81;;;;-54
2022/02/02 08:43:21;;;;;;;7.70;6.97;;;;;;;17.28;46.36;100555.28;;;;-54
2022/02/02 08:46:23;;;;;;;6.96;6.35;;;;;;;17.27;46.33;100554.70;;;;-54
2022/02/02 08:49:16;;;;;;;5.75;5.24;;;;;;;17.26;46.33;100561.96;;;;-54
2022/02/02 08:52:16;;;;;;;7.09;6.49;;;;;;;17.26;46.32;100565.13;;;;-54
2022/02/02 08:55:18;;;;;;;6.63;5.91;;;;;;;17.25;46.34;100555.80;;;;-54
2022/02/02 08:58:31;;;;;;;6.72;6.09;;;;;;;17.25;46.29;100562.04;;;;-55
2022/02/02 09:01:22;;;;;;;6.92;6.29;;;;;;;17.25;46.27;100555.16;;;;-55
2022/02/02 09:07:16;;;;;;;8.12;7.37;;;;;;;17.28;46.88;100557.62;;;;-58
2022/02/02 09:10:22;;;;;;;6.17;5.59;;;;;;;17.30;47.65;100560.25;;;;-59
2022/02/02 09:36:19;;;;;;;6.95;5.87;;;;;;;17.84;47.83;100590.64;;;;-52
2022/02/02 09:39:20;;;;;;;5.53;4.99;;;;;;;17.87;47.57;100597.19;;;;-51
2022/02/02 09:42:19;;;;;;;7.38;6.26;;;;;;;17.91;47.70;100605.03;;;;-55
2022/02/02 09:45:16;;;;;;;8.05;7.15;;;;;;;17.93;47.36;100616.25;;;;-53
2022/02/02 09:48:24;;;;;;;7.95;7.14;;;;;;;17.95;47.04;100622.69;;;;-54
2022/02/02 09:51:23;;;;;;;10.15;7.27;;;;;;;18.02;47.45;100630.16;;;;-49
2022/02/02 09:54:21;;;;;;;6.92;6.24;;;;;;;18.05;47.13;100635.38;;;;-50
2022/02/02 09:57:55;;;;;;;12.00;9.30;;;;;;;18.08;47.06;100641.77;;;;-56
2022/02/02 10:01:26;;;;;;;10.15;7.00;;;;;;;18.09;46.68;100652.47;;;;-56
2022/02/02 10:04:31;;;;;;;11.31;8.19;;;;;;;18.12;47.01;100669.25;;;;-55
2022/02/02 10:07:33;;;;;;;9.53;8.55;;;;;;;18.18;47.09;100669.06;;;;-54
2022/02/02 10:10:36;;;;;;;10.09;8.01;;;;;;;18.22;47.08;100680.52;;;;-54
2022/02/02 10:13:24;;;;;;;9.99;8.67;;;;;;;18.26;47.12;100680.95;;;;-57
2022/02/02 10:16:15;;;;;;;7.17;6.41;;;;;;;18.30;47.09;100683.64;;;;-58
2022/02/02 10:19:16;;;;;;;8.57;7.71;;;;;;;18.36;47.02;100682.32;;;;-52
2022/02/02 10:22:16;;;;;;;8.88;7.98;;;;;;;18.38;47.02;100689.08;;;;-53
2022/02/02 10:25:15;;;;;;;7.21;6.51;;;;;;;18.45;47.03;100692.61;;;;-53
2022/02/02 10:28:16;;;;;;;9.29;8.37;;;;;;;18.47;46.96;100697.10;;;;-52
2022/02/02 10:31:15;;;;;;;10.91;9.95;;;;;;;18.52;46.98;100694.41;;;;-53
2022/02/02 10:34:16;;;;;;;18.22;16.67;;;;;;;18.56;47.03;100694.78;;;;-52
2022/02/02 10:37:16;;;;;;;5.05;3.54;;;;;;;18.59;46.95;100691.16;;;;-56
2022/02/02 10:40:15;;;;;;;3.79;3.18;;;;;;;18.63;46.94;100691.55;;;;-55
2022/02/02 10:43:15;;;;;;;4.17;3.38;;;;;;;18.68;46.82;100690.00;;;;-54
2022/02/02 10:46:20;;;;;;;2.55;1.61;;;;;;;18.71;46.84;100686.30;;;;-56
2022/02/02 10:49:20;;;;;;;4.77;2.87;;;;;;;18.75;46.75;100685.86;;;;-52
2022/02/02 10:52:30;;;;;;;5.38;3.02;;;;;;;18.71;46.53;100684.67;;;;-52
2022/02/02 10:55:36;;;;;;;6.11;4.85;;;;;;;18.71;46.31;100686.05;;;;-60
2022/02/02 10:58:28;;;;;;;6.17;2.61;;;;;;;18.71;46.40;100682.07;;;;-51
2022/02/02 11:01:33;;;;;;;4.41;3.58;;;;;;;18.75;46.36;100682.77;;;;-51
2022/02/02 11:07:16;;;;;;;9.03;2.17;;;;;;;18.83;46.38;100690.14;;;;-51
2022/02/02 11:10:16;;;;;;;6.11;2.98;;;;;;;18.88;46.38;100696.60;;;;-52
2022/02/02 11:13:16;;;;;;;5.06;2.57;;;;;;;18.91;46.44;100697.23;;;;-54
2022/02/02 11:16:16;;;;;;;5.23;2.39;;;;;;;18.93;46.41;100695.55;;;;-52
2022/02/02 11:19:15;;;;;;;4.13;1.95;;;;;;;18.97;46.36;100709.33;;;;-54
2022/02/02 11:22:16;;;;;;;3.99;1.73;;;;;;;18.98;46.28;100704.77;;;;-49
2022/02/02 11:25:16;;;;;;;4.21;1.83;;;;;;;19.02;46.19;100706.61;;;;-52
2022/02/02 11:28:15;;;;;;;5.92;2.08;;;;;;;19.04;46.38;100708.99;;;;-59
2022/02/02 11:31:18;;;;;;;3.43;2.00;;;;;;;19.06;46.31;100695.94;;;;-52
2022/02/02 11:34:15;;;;;;;4.08;1.88;;;;;;;19.08;46.32;100698.16;;;;-54
2022/02/02 11:37:15;;;;;;;3.24;1.89;;;;;;;19.10;46.25;100705.41;;;;-52
2022/02/02 11:40:16;;;;;;;3.94;2.02;;;;;;;19.12;46.22;100707.55;;;;-52
2022/02/02 11:43:16;;;;;;;5.07;1.93;;;;;;;19.13;46.19;100708.35;;;;-52
2022/02/02 11:46:18;;;;;;;2.95;1.91;;;;;;;19.16;46.15;100708.00;;;;-57
2022/02/02 11:49:18;;;;;;;2.75;1.93;;;;;;;19.17;45.94;100703.20;;;;-62
2022/02/02 11:52:15;;;;;;;3.13;1.73;;;;;;;19.19;46.01;100696.73;;;;-58
2022/02/02 11:55:16;;;;;;;3.59;1.83;;;;;;;19.19;45.93;100703.88;;;;-59
2022/02/02 11:58:18;;;;;;;4.90;1.81;;;;;;;19.22;45.97;100709.13;;;;-60
2022/02/02 12:01:20;;;;;;;3.00;1.88;;;;;;;19.20;45.73;100719.50;;;;-60
2022/02/02 12:04:20;;;;;;;4.18;2.06;;;;;;;19.20;45.74;100724.63;;;;-52
2022/02/02 12:07:19;;;;;;;3.48;1.89;;;;;;;19.19;45.65;100725.25;;;;-52
2022/02/02 12:10:21;;;;;;;3.61;1.99;;;;;;;19.20;45.67;100726.66;;;;-52
2022/02/02 12:47:00;;;;;;;3.41;1.77;;;;;;;19.26;45.34;100734.58;;;;-52
2022/02/02 12:49:35;;;;;;;2.70;1.59;;;;;;;19.24;45.26;100734.34;;;;-53
2022/02/02 12:59:40;;;;;;;3.24;1.78;;;;;;;19.25;45.20;100742.14;;;;-52
2022/02/02 13:02:15;;;;;;;3.59;1.67;;;;;;;19.24;45.19;100743.77;;;;-53
2022/02/02 13:05:15;;;;;;;2.95;1.80;;;;;;;19.29;45.39;100754.70;;;;-54
2022/02/02 13:08:15;;;;;;;2.61;1.59;;;;;;;19.34;45.51;100759.09;;;;-51
2022/02/02 13:35:59;;;;;;;3.57;1.69;;;;;;;19.66;44.98;100773.48;;;;-58
2022/02/02 13:39:17;;;;;;;6.04;1.95;;;;;;;19.70;44.80;100781.42;;;;-58
2022/02/02 13:45:10;;;;;;;6.07;1.81;;;;;;;19.71;44.95;100790.39;;;;-56
2022/02/02 13:48:05;;;;;;;4.78;1.83;;;;;;;19.71;45.06;100800.72;;;;-59
2022/02/02 13:51:07;;;;;;;4.56;1.75;;;;;;;19.72;45.08;100797.09;;;;-54
2022/02/02 14:00:23;;;;;;;3.87;1.70;;;;;;;19.79;45.85;100801.62;;;;-59
2022/02/02 14:08:00;;;;;;;3.81;1.73;;;;;;;19.83;45.93;100802.88;;;;-58
2022/02/02 14:11:07;;;;;;;9.42;2.01;;;;;;;19.86;45.71;100806.80;;;;-59
2022/02/02 14:26:08;;;;;;;6.17;1.97;;;;;;;19.82;44.89;100805.08;;;;-55
2022/02/02 14:31:50;;;;;;;4.95;1.84;;;;;;;19.78;45.02;100805.53;;;;-54
2022/02/02 14:34:50;;;;;;;3.25;1.87;;;;;;;19.76;44.93;100812.34;;;;-53
2022/02/02 14:37:52;;;;;;;3.01;1.69;;;;;;;19.76;45.03;100812.91;;;;-54
2022/02/02 14:41:02;;;;;;;5.75;1.72;;;;;;;19.73;45.04;100818.30;;;;-55
2022/02/02 14:43:57;;;;;;;5.16;1.77;;;;;;;19.73;44.93;100826.92;;;;-51
2022/02/02 14:46:59;;;;;;;3.17;1.73;;;;;;;19.70;44.94;100829.75;;;;-51
2022/02/02 14:49:56;;;;;;;5.59;1.83;;;;;;;19.75;44.99;100833.61;;;;-57
2022/02/02 14:53:02;;;;;;;4.71;1.87;;;;;;;19.73;44.91;100841.80;;;;-52
2022/02/02 14:56:21;;;;;;;5.37;1.89;;;;;;;19.71;44.49;100841.05;;;;-52
2022/02/02 15:08:08;;;;;;;5.33;1.80;;;;;;;19.66;44.75;100839.51;;;;-52
2022/02/02 15:23:59;;;;;;;5.75;1.85;;;;;;;19.67;44.64;100851.73;;;;-52
2022/02/02 15:29:59;;;;;;;4.12;1.65;;;;;;;19.68;44.74;100865.31;;;;-57
2022/02/02 15:32:52;;;;;;;3.49;1.71;;;;;;;19.68;44.58;100868.97;;;;-53
2022/02/02 15:36:01;;;;;;;4.11;1.83;;;;;;;19.67;44.49;100870.89;;;;-53
2022/02/02 15:38:52;;;;;;;2.75;1.71;;;;;;;19.69;44.62;100875.17;;;;-53
2022/02/02 15:42:11;;;;;;;6.04;1.99;;;;;;;19.67;44.41;100881.49;;;;-53
2022/02/02 15:55:02;;;;;;;4.39;2.27;;;;;;;19.56;44.41;100901.09;;;;-53
2022/02/02 15:58:12;;;;;;;7.17;2.31;;;;;;;19.56;44.56;100910.27;;;;-56
2022/02/02 16:03:51;;;;;;;4.71;2.35;;;;;;;19.57;44.59;100913.07;;;;-58
2022/02/02 16:06:51;;;;;;;5.17;2.27;;;;;;;19.57;44.62;100914.61;;;;-56
2022/02/02 16:09:53;;;;;;;4.68;2.29;;;;;;;19.58;44.65;100915.67;;;;-54
2022/02/02 16:12:50;;;;;;;5.44;2.47;;;;;;;19.58;44.52;100922.91;;;;-56
2022/02/02 16:15:54;;;;;;;3.37;2.12;;;;;;;19.58;44.46;100925.34;;;;-53
2022/02/02 16:18:54;;;;;;;4.25;2.25;;;;;;;19.61;44.60;100926.45;;;;-53
2022/02/02 16:25:10;;;;;;;4.05;2.28;;;;;;;19.64;44.46;100930.62;;;;-53
2022/02/02 16:37:50;;;;;;;4.75;2.49;;;;;;;19.72;44.65;100931.50;;;;-57
2022/02/02 16:40:52;;;;;;;6.25;2.30;;;;;;;19.75;44.66;100929.09;;;;-56
2022/02/02 16:43:50;;;;;;;3.65;2.15;;;;;;;19.76;44.66;100935.70;;;;-56
2022/02/02 16:46:50;;;;;;;2.91;2.01;;;;;;;19.78;44.71;100942.56;;;;-58
2022/02/02 16:49:50;;;;;;;4.27;2.17;;;;;;;19.79;44.64;100948.90;;;;-55
2022/02/02 16:52:53;;;;;;;4.33;1.93;;;;;;;19.83;44.58;100939.69;;;;-57
2022/02/02 16:55:55;;;;;;;3.31;2.10;;;;;;;19.82;44.51;100941.88;;;;-59
2022/02/02 17:30:55;;;;;;;5.43;2.01;;;;;;;20.00;44.59;100970.06;;;;-57
2022/02/02 17:33:54;;;;;;;4.66;1.92;;;;;;;20.04;44.67;100968.41;;;;-59
2022/02/02 17:36:56;;;;;;;2.42;1.87;;;;;;;20.08;44.92;100968.38;;;;-55
2022/02/02 17:39:58;;;;;;;3.99;2.00;;;;;;;20.13;44.98;100971.06;;;;-50
2022/02/02 17:43:08;;;;;;;4.97;1.89;;;;;;;20.15;45.09;100977.67;;;;-51
2022/02/02 17:45:58;;;;;;;2.96;1.89;;;;;;;20.18;45.13;100979.65;;;;-61
2022/02/02 18:01:55;;;;;;;3.45;1.80;;;;;;;20.14;44.52;100971.70;;;;-52
2022/02/02 18:13:16;;;;;;;4.40;1.85;;;;;;;20.09;44.47;100985.81;;;;-53
2022/02/02 18:16:35;;;;;;;2.85;1.84;;;;;;;20.08;44.56;100990.02;;;;-52
2022/02/02 18:18:56;;;;;;;2.39;1.70;;;;;;;20.08;44.52;101001.82;;;;-53
2022/02/02 18:21:50;;;;;;;2.90;1.88;;;;;;;20.06;44.56;101001.88;;;;-53
2022/02/02 18:25:01;;;;;;;3.05;1.61;;;;;;;20.05;44.53;101003.09;;;;-52
2022/02/02 18:27:58;;;;;;;3.21;1.70;;;;;;;20.03;44.54;101006.24;;;;-52
2022/02/02 18:31:04;;;;;;;3.05;1.65;;;;;;;20.03;44.51;101013.98;;;;-52
2022/02/02 18:33:54;;;;;;;2.61;1.66;;;;;;;20.01;44.60;101013.86;;;;-53
2022/02/02 18:36:59;;;;;;;3.69;1.61;;;;;;;20.01;44.65;101011.75;;;;-53
2022/02/02 18:41:38;;;;;;;2.71;1.51;;;;;;;20.00;44.59;101020.09;;;;-53
2022/02/02 18:44:33;;;;;;;2.24;1.69;;;;;;;20.00;44.64;101014.08;;;;-52
2022/02/02 18:47:16;;;;;;;2.84;1.76;;;;;;;20.00;44.59;101017.41;;;;-52
2022/02/02 18:50:05;;;;;;;2.57;1.74;;;;;;;20.00;44.66;101014.65;;;;-52
2022/02/02 18:56:05;;;;;;;2.88;1.57;;;;;;;20.02;44.69;101015.16;;;;-52
2022/02/02 18:59:00;;;;;;;2.74;1.70;;;;;;;20.02;44.66;101024.84;;;;-52
2022/02/02 19:01:56;;;;;;;2.13;1.62;;;;;;;20.03;44.65;101029.92;;;;-52
2022/02/02 19:05:14;;;;;;;1.61;1.44;;;;;;;20.04;44.65;101033.25;;;;-52
2022/02/02 19:08:03;;;;;;;1.82;1.47;;;;;;;20.02;44.64;101034.28;;;;-52
2022/02/02 19:53:27;;;;;;;2.27;1.59;;;;;;;20.14;45.46;101059.43;;;;-57
2022/02/02 19:55:55;;;;;;;3.21;1.62;;;;;;;20.11;45.14;101066.81;;;;-48
2022/02/02 20:02:05;;;;;;;2.35;1.40;;;;;;;20.05;44.97;101080.06;;;;-58
2022/02/02 20:04:58;;;;;;;1.99;1.44;;;;;;;20.02;44.95;101080.91;;;;-59
2022/02/02 20:08:05;;;;;;;2.42;1.53;;;;;;;19.98;44.96;101079.55;;;;-58
2022/02/02 20:11:01;;;;;;;1.93;1.57;;;;;;;19.95;44.92;101083.34;;;;-59
2022/02/02 20:13:50;;;;;;;2.24;1.45;;;;;;;19.92;44.91;101081.73;;;;-59
2022/02/02 20:16:50;;;;;;;3.01;1.50;;;;;;;19.89;44.89;101080.89;;;;-48
2022/02/02 20:19:54;;;;;;;3.46;1.60;;;;;;;19.87;44.97;101078.98;;;;-51
2022/02/02 20:22:50;;;;;;;3.45;1.49;;;;;;;19.86;45.30;101077.77;;;;-58
2022/02/02 20:25:54;;;;;;;5.62;1.56;;;;;;;19.84;45.48;101074.00;;;;-58
2022/02/02 20:28:50;;;;;;;3.23;1.64;;;;;;;19.83;45.59;101071.04;;;;-50
2022/02/02 20:31:50;;;;;;;7.73;1.79;;;;;;;19.82;45.65;101066.00;;;;-52
2022/02/02 20:34:51;;;;;;;2.91;1.70;;;;;;;19.81;45.66;101065.31;;;;-52
2022/02/02 20:39:53;;;;;;;3.59;1.47;;;;;;;19.78;45.91;101065.69;;;;-51
2022/02/02 20:42:56;;;;;;;1.83;1.36;;;;;;;19.77;46.02;101070.05;;;;-50
2022/02/02 20:46:27;;;;;;;3.59;1.61;;;;;;;19.76;45.96;101078.10;;;;-54
2022/02/02 21:06:05;;;;;;;1.99;1.50;;;;;;;19.63;45.91;101077.45;;;;-55
2022/02/02 21:09:08;;;;;;;2.17;1.50;;;;;;;19.61;45.88;101077.94;;;;-54
2022/02/02 21:13:40;;;;;;;2.17;1.60;;;;;;;19.59;45.99;101077.14;;;;-51
2022/02/02 21:14:58;;;;;;;2.75;1.50;;;;;;;19.57;45.98;101082.31;;;;-51
2022/02/02 21:17:51;;;;;;;2.20;1.50;;;;;;;19.55;46.00;101078.81;;;;-57
2022/02/02 21:20:54;;;;;;;1.67;1.42;;;;;;;19.55;45.95;101076.70;;;;-54
2022/02/02 21:24:30;;;;;;;1.57;1.40;;;;;;;19.53;45.99;101080.41;;;;-56
2022/02/02 21:27:14;;;;;;;1.89;1.58;;;;;;;19.52;46.03;101081.59;;;;-54
2022/02/02 21:29:50;;;;;;;2.39;1.58;;;;;;;19.50;46.10;101081.48;;;;-52
2022/02/02 21:32:50;;;;;;;3.33;1.58;;;;;;;19.49;46.04;101077.57;;;;-59
2022/02/02 21:35:51;;;;;;;1.90;1.41;;;;;;;19.47;46.16;101077.05;;;;-56
2022/02/02 21:39:02;;;;;;;2.42;1.47;;;;;;;19.45;46.20;101074.83;;;;-58
2022/02/02 21:41:51;;;;;;;2.62;1.43;;;;;;;19.45;46.21;101074.58;;;;-57
2022/02/02 21:44:50;;;;;;;2.18;1.60;;;;;;;19.43;46.34;101075.61;;;;-61
2022/02/02 21:47:50;;;;;;;1.88;1.36;;;;;;;19.42;46.34;101073.86;;;;-56
2022/02/02 21:50:53;;;;;;;1.57;1.47;;;;;;;19.41;46.41;101085.33;;;;-60
2022/02/02 21:53:50;;;;;;;1.73;1.53;;;;;;;19.39;46.39;101089.84;;;;-61
2022/02/02 21:56:50;;;;;;;1.81;1.53;;;;;;;19.36;46.35;101087.13;;;;-60
2022/02/02 21:59:50;;;;;;;2.99;1.50;;;;;;;19.36;46.43;101090.66;;;;-55
2022/02/02 22:02:50;;;;;;;1.76;1.51;;;;;;;19.34;46.46;101087.66;;;;-54
2022/02/02 22:05:50;;;;;;;2.07;1.59;;;;;;;19.34;46.39;101089.52;;;;-48
2022/02/02 22:08:50;;;;;;;2.60;1.54;;;;;;;19.32;46.46;101091.90;;;;-47
2022/02/02 22:11:50;;;;;;;3.09;1.59;;;;;;;19.30;46.47;101092.05;;;;-52
2022/02/02 22:14:51;;;;;;;2.28;1.58;;;;;;;19.29;46.53;101093.08;;;;-53
2022/02/02 22:17:50;;;;;;;2.24;1.61;;;;;;;19.28;46.58;101095.52;;;;-54
2022/02/02 22:20:51;;;;;;;2.91;1.59;;;;;;;19.26;46.55;101097.43;;;;-49
2022/02/02 22:23:50;;;;;;;1.86;1.63;;;;;;;19.25;46.65;101101.63;;;;-47
2022/02/02 22:26:50;;;;;;;3.37;1.57;;;;;;;19.25;46.69;101101.22;;;;-52
2022/02/02 22:29:50;;;;;;;1.69;1.53;;;;;;;19.24;46.69;101100.48;;;;-51
2022/02/02 22:32:51;;;;;;;3.78;1.79;;;;;;;19.23;46.68;101102.39;;;;-51
2022/02/02 22:35:50;;;;;;;8.81;1.71;;;;;;;19.19;46.62;101101.92;;;;-52
2022/02/02 22:38:50;;;;;;;2.55;1.74;;;;;;;19.17;46.56;101100.74;;;;-59
2022/02/02 22:41:50;;;;;;;1.87;1.57;;;;;;;19.14;46.51;101099.33;;;;-58
2022/02/02 22:44:52;;;;;;;1.71;1.61;;;;;;;19.11;46.44;101098.28;;;;-58
2022/02/02 22:47:50;;;;;;;1.93;1.71;;;;;;;19.08;46.42;101103.03;;;;-52
2022/02/02 22:50:50;;;;;;;2.32;1.67;;;;;;;19.06;46.38;101103.89;;;;-52
2022/02/02 22:53:50;;;;;;;1.69;1.57;;;;;;;19.04;46.35;101104.83;;;;-60
2022/02/02 22:56:50;;;;;;;2.19;1.70;;;;;;;19.01;46.36;101099.95;;;;-59
2022/02/02 22:59:51;;;;;;;2.15;1.68;;;;;;;18.98;46.32;101101.22;;;;-59
2022/02/02 23:02:58;;;;;;;1.88;1.66;;;;;;;18.95;46.33;101099.62;;;;-58
2022/02/02 23:05:53;;;;;;;2.13;1.83;;;;;;;18.92;46.32;101099.56;;;;-58
2022/02/02 23:08:50;;;;;;;1.70;1.60;;;;;;;18.90;46.32;101103.17;;;;-59
2022/02/02 23:11:50;;;;;;;1.75;1.58;;;;;;;18.88;46.34;101105.03;;;;-58
2022/02/02 23:14:50;;;;;;;1.99;1.77;;;;;;;18.85;46.30;101098.55;;;;-59
2022/02/02 23:17:50;;;;;;;1.95;1.69;;;;;;;18.83;46.33;101099.89;;;;-58
2022/02/02 23:20:53;;;;;;;2.20;1.60;;;;;;;18.80;46.32;101096.59;;;;-59
2022/02/02 23:23:50;;;;;;;2.04;1.86;;;;;;;18.77;46.32;101098.59;;;;-59
2022/02/02 23:26:50;;;;;;;2.09;1.74;;;;;;;18.75;46.30;101098.31;;;;-58
2022/02/02 23:29:52;;;;;;;1.91;1.67;;;;;;;18.72;46.31;101100.79;;;;-58
2022/02/02 23:32:50;;;;;;;2.32;1.64;;;;;;;18.71;46.34;101094.09;;;;-57
2022/02/02 23:35:50;;;;;;;1.99;1.79;;;;;;;18.68;46.33;101094.29;;;;-57